createdAt,value
2022-12-18T00:01:23.935Z,102388.13
2022-12-18T00:03:51.876Z,102392.22
2022-12-18T00:06:20.741Z,102395.44
2022-12-18T00:08:48.284Z,102398.16
2022-12-18T00:11:17.826Z,102396.94
2022-12-18T00:13:45.276Z,102400.59
2022-12-18T00:16:14.715Z,102412.66
2022-12-18T00:18:42.956Z,102411.16
2022-12-18T00:21:12.192Z,102425.16
2022-12-18T00:23:40.980Z,102423.22
2022-12-18T00:26:12.486Z,102438.34
2022-12-18T00:28:39.330Z,102436.53
2022-12-18T00:31:12.026Z,102434.78
2022-12-18T00:33:39.600Z,102447.31
2022-12-18T00:36:21.607Z,102446.81
2022-12-18T00:38:49.093Z,102448.00
2022-12-18T00:41:39.642Z,102443.47
2022-12-18T00:44:08.597Z,102451.72
2022-12-18T00:46:35.412Z,102456.50
2022-12-18T00:49:02.704Z,102462.97
2022-12-18T00:51:29.865Z,102463.66
2022-12-18T00:53:56.751Z,102461.50
2022-12-18T00:56:24.245Z,102458.56
2022-12-18T00:58:51.552Z,102451.69
2022-12-18T01:01:19.401Z,102468.63
2022-12-18T01:03:47.644Z,102464.91
2022-12-18T01:06:16.899Z,102468.28
2022-12-18T01:08:44.639Z,102473.56
2022-12-18T01:11:16.928Z,102483.47
2022-12-18T01:13:45.060Z,102485.47
2022-12-18T01:16:16.791Z,102473.84
2022-12-18T01:18:43.704Z,102476.50
2022-12-18T01:21:13.267Z,102478.34
2022-12-18T01:23:41.062Z,102494.81
2022-12-18T01:26:16.371Z,102493.63
2022-12-18T01:28:45.061Z,102493.44
2022-12-18T01:31:20.860Z,102499.41
2022-12-18T01:33:47.716Z,102506.44
2022-12-18T01:36:23.397Z,102511.25
2022-12-18T01:38:50.897Z,102511.25
2022-12-18T01:41:22.712Z,102505.66
2022-12-18T01:43:58.413Z,102514.56
2022-12-18T01:46:26.901Z,102516.78
2022-12-18T01:49:02.428Z,102512.56
2022-12-18T01:51:31.701Z,102523.94
2022-12-18T01:54:00.381Z,102530.72
2022-12-18T01:56:27.297Z,102529.16
2022-12-18T01:59:00.960Z,102537.53
2022-12-18T02:01:29.111Z,102536.66
2022-12-18T02:03:56.017Z,102535.91
2022-12-18T02:06:38.877Z,102538.97
2022-12-18T02:09:12.199Z,102544.72
2022-12-18T02:11:44.894Z,102544.69
2022-12-18T02:14:34.118Z,102550.97
2022-12-18T02:17:18.201Z,102550.84
2022-12-18T02:20:17.223Z,102551.00
2022-12-18T02:23:12.276Z,102549.78
2022-12-18T02:26:19.810Z,102560.97
2022-12-18T02:29:05.096Z,102562.97
2022-12-18T02:31:40.944Z,102568.59
2022-12-18T02:34:10.357Z,102576.00
2022-12-18T02:36:44.089Z,102571.81
2022-12-18T02:39:14.722Z,102577.09
2022-12-18T02:41:51.862Z,102590.47
2022-12-18T02:44:21.111Z,102592.44
2022-12-18T02:46:52.680Z,102604.41
2022-12-18T02:49:46.085Z,102607.59
2022-12-18T02:52:48.835Z,102613.31
2022-12-18T02:55:41.562Z,102621.13
2022-12-18T02:58:36.903Z,102620.22
2022-12-18T03:01:22.039Z,102621.34
2022-12-18T03:03:56.423Z,102620.47
2022-12-18T03:06:42.086Z,102629.66
2022-12-18T03:09:14.328Z,102628.56
2022-12-18T03:12:03.765Z,102632.19
2022-12-18T03:14:38.967Z,102629.75
2022-12-18T03:17:11.465Z,102630.66
2022-12-18T03:19:40.320Z,102616.13
2022-12-18T03:22:08.728Z,102620.69
2022-12-18T03:24:46.938Z,102624.41
2022-12-18T03:27:18.677Z,102620.28
2022-12-18T03:30:11.335Z,102613.59
2022-12-18T03:32:56.484Z,102610.50
2022-12-18T03:35:32.871Z,102615.78
2022-12-18T03:37:59.918Z,102616.09
2022-12-18T03:40:39.265Z,102621.41
2022-12-18T03:43:19.876Z,102613.53
2022-12-18T03:45:56.782Z,102608.69
2022-12-18T03:48:29.458Z,102609.72
2022-12-18T03:51:09.939Z,102608.59
2022-12-18T03:53:53.375Z,102605.81
2022-12-18T03:56:29.776Z,102610.78
2022-12-18T03:59:00.015Z,102608.75
2022-12-18T04:01:35.600Z,102605.34
2022-12-18T04:04:04.944Z,102614.94
2022-12-18T04:06:35.611Z,102614.56
2022-12-18T04:09:02.646Z,102617.78
2022-12-18T04:11:31.313Z,102625.63
2022-12-18T04:13:59.357Z,102618.91
2022-12-18T04:16:27.579Z,102626.72
2022-12-18T04:18:57.475Z,102626.84
2022-12-18T04:21:26.374Z,102646.34
2022-12-18T04:23:53.776Z,102645.78
2022-12-18T04:26:23.041Z,102639.47
2022-12-18T04:29:21.659Z,102643.69
2022-12-18T04:31:48.718Z,102648.16
2022-12-18T04:34:16.561Z,102651.25
2022-12-18T04:36:49.365Z,102653.69
2022-12-18T04:39:16.812Z,102659.78
2022-12-18T04:41:43.978Z,102663.66
2022-12-18T04:44:13.602Z,102651.59
2022-12-18T04:46:40.488Z,102671.25
2022-12-18T04:49:07.316Z,102668.84
2022-12-18T04:51:34.107Z,102677.78
2022-12-18T04:54:00.837Z,102686.06
2022-12-18T04:56:27.701Z,102689.94
2022-12-18T04:58:54.465Z,102690.91
2022-12-18T05:01:21.320Z,102686.06
2022-12-18T05:03:48.472Z,102699.75
2022-12-18T05:06:15.843Z,102707.19
2022-12-18T05:08:42.564Z,102709.72
2022-12-18T05:11:16.702Z,102709.44
2022-12-18T05:13:45.420Z,102705.22
2022-12-18T05:16:14.339Z,102707.81
2022-12-18T05:18:41.304Z,102711.03
2022-12-18T05:21:08.630Z,102715.69
2022-12-18T05:23:36.108Z,102713.91
2022-12-18T05:26:05.498Z,102718.22
2022-12-18T05:28:34.343Z,102723.97
2022-12-18T05:31:03.328Z,102736.91
2022-12-18T05:33:32.767Z,102732.03
2022-12-18T05:36:02.800Z,102734.59
2022-12-18T05:38:30.832Z,102748.97
2022-12-18T05:40:58.284Z,102738.25
2022-12-18T05:43:27.371Z,102745.72
2022-12-18T05:45:54.542Z,102754.94
2022-12-18T05:48:21.916Z,102758.53
2022-12-18T05:50:50.007Z,102759.59
2022-12-18T05:53:20.881Z,102760.41
2022-12-18T05:55:51.415Z,102764.53
2022-12-18T05:58:18.276Z,102759.41
2022-12-18T06:00:47.124Z,102773.31
2022-12-18T06:03:15.029Z,102774.75
2022-12-18T06:05:46.585Z,102776.19
2022-12-18T06:08:14.213Z,102788.00
2022-12-18T06:10:42.057Z,102784.03
2022-12-18T06:13:09.829Z,102786.06
2022-12-18T06:15:41.177Z,102793.91
2022-12-18T06:18:07.965Z,102801.34
2022-12-18T06:20:34.755Z,102809.16
2022-12-18T06:23:01.609Z,102808.50
2022-12-18T06:25:28.385Z,102809.81
2022-12-18T06:27:55.575Z,102816.25
2022-12-18T06:30:22.435Z,102822.03
2022-12-18T06:32:56.101Z,102826.25
2022-12-18T06:35:23.642Z,102827.81
2022-12-18T06:37:50.463Z,102835.88
2022-12-18T06:40:17.718Z,102848.22
2022-12-18T06:42:44.456Z,102852.22
2022-12-18T06:45:12.446Z,102845.97
2022-12-18T06:47:39.325Z,102854.22
2022-12-18T06:50:06.719Z,102855.34
2022-12-18T06:52:33.971Z,102857.13
2022-12-18T06:55:01.294Z,102868.78
2022-12-18T06:57:28.029Z,102857.97
2022-12-18T06:59:56.177Z,102863.28
2022-12-18T07:02:25.499Z,102870.25
2022-12-18T07:04:52.562Z,102865.72
2022-12-18T07:07:19.484Z,102885.81
2022-12-18T07:09:46.328Z,102893.09
2022-12-18T07:12:12.997Z,102897.00
2022-12-18T07:14:39.817Z,102894.84
2022-12-18T07:17:06.656Z,102893.94
2022-12-18T07:19:34.177Z,102900.59
2022-12-18T07:22:01.468Z,102900.41
2022-12-18T07:24:28.993Z,102905.72
2022-12-18T07:26:55.784Z,102902.34
2022-12-18T07:29:22.652Z,102899.31
2022-12-18T07:31:50.265Z,102907.47
2022-12-18T07:34:17.523Z,102905.97
2022-12-18T07:36:44.256Z,102902.91
2022-12-18T07:39:12.858Z,102910.34
2022-12-18T07:41:46.734Z,102906.38
2022-12-18T07:44:16.291Z,102909.84
2022-12-18T07:46:43.059Z,102917.31
2022-12-18T07:49:09.825Z,102916.25
2022-12-18T07:51:36.584Z,102919.44
2022-12-18T07:54:03.555Z,102925.78
2022-12-18T07:56:31.430Z,102923.81
2022-12-18T07:59:00.074Z,102933.78
2022-12-18T08:01:27.267Z,102925.84
2022-12-18T08:03:54.306Z,102936.50
2022-12-18T08:06:23.941Z,102936.28
2022-12-18T08:08:55.957Z,102939.78
2022-12-18T08:11:24.499Z,102946.97
2022-12-18T08:13:51.695Z,102960.38
2022-12-18T08:16:19.538Z,102954.09
2022-12-18T08:18:46.991Z,102956.66
2022-12-18T08:21:17.836Z,102961.19
2022-12-18T08:23:45.066Z,102974.03
2022-12-18T08:26:13.512Z,102977.59
2022-12-18T08:28:40.949Z,102972.38
2022-12-18T08:31:09.131Z,102977.38
2022-12-18T08:33:37.340Z,102987.13
2022-12-18T08:36:05.189Z,102989.63
2022-12-18T08:38:33.352Z,102991.94
2022-12-18T08:41:07.890Z,103000.59
2022-12-18T08:43:54.357Z,102999.56
2022-12-18T08:46:22.948Z,102995.56
2022-12-18T08:48:51.779Z,103005.22
2022-12-18T08:51:18.980Z,103008.88
2022-12-18T08:53:48.760Z,103003.78
2022-12-18T08:56:16.312Z,103006.69
2022-12-18T08:58:43.655Z,103009.53
2022-12-18T09:01:13.206Z,103014.97
2022-12-18T09:03:41.113Z,103013.41
2022-12-18T09:06:09.023Z,103021.16
2022-12-18T09:08:38.016Z,103022.19
2022-12-18T09:11:05.377Z,103036.59
2022-12-18T09:13:32.232Z,103028.66
2022-12-18T09:15:59.863Z,103039.00
2022-12-18T09:18:27.443Z,103039.53
2022-12-18T09:20:54.430Z,103045.25
2022-12-18T09:23:22.194Z,103044.09
2022-12-18T09:25:49.677Z,103039.97
2022-12-18T09:28:19.465Z,103038.03
2022-12-18T09:30:49.910Z,103041.88
2022-12-18T09:33:18.290Z,103044.16
2022-12-18T09:35:46.558Z,103044.44
2022-12-18T09:38:19.776Z,103041.41
2022-12-18T09:40:50.890Z,103047.31
2022-12-18T09:43:45.198Z,103042.00
2022-12-18T09:46:41.494Z,103039.63
2022-12-18T09:49:15.555Z,103040.41
2022-12-18T09:51:51.541Z,103039.75
2022-12-18T09:54:33.096Z,103036.44
2022-12-18T09:57:00.012Z,103030.72
2022-12-18T09:59:36.770Z,103030.97
2022-12-18T10:02:16.166Z,103035.47
2022-12-18T10:04:43.254Z,103031.66
2022-12-18T10:07:29.548Z,103030.09
2022-12-18T10:10:09.729Z,103036.50
2022-12-18T10:13:04.948Z,103033.13
2022-12-18T10:15:51.811Z,103026.25
2022-12-18T10:18:27.567Z,103025.22
2022-12-18T10:21:01.188Z,103021.00
2022-12-18T10:23:34.076Z,103018.59
2022-12-18T10:26:05.407Z,103024.59
2022-12-18T10:28:34.213Z,103027.03
2022-12-18T10:31:01.131Z,103015.59
2022-12-18T10:33:32.957Z,103018.16
2022-12-18T10:36:01.172Z,103006.88
2022-12-18T10:38:30.005Z,103013.41
2022-12-18T10:40:59.958Z,103014.28
2022-12-18T10:43:30.616Z,103015.34
2022-12-18T10:46:13.818Z,103004.66
2022-12-18T10:48:49.561Z,103010.22
2022-12-18T10:51:32.476Z,103015.44
2022-12-18T10:54:03.708Z,103006.25
2022-12-18T10:56:34.560Z,103011.84
2022-12-18T10:59:06.874Z,103000.94
2022-12-18T11:01:55.936Z,103008.97
2022-12-18T11:04:28.622Z,103017.91
2022-12-18T11:07:09.610Z,103019.88
2022-12-18T11:09:41.034Z,103020.66
2022-12-18T11:12:23.725Z,103015.16
2022-12-18T11:14:53.771Z,103017.81
2022-12-18T11:17:31.415Z,103018.03
2022-12-18T11:20:31.079Z,103021.16
2022-12-18T11:23:01.643Z,103017.53
2022-12-18T11:25:33.328Z,103011.84
2022-12-18T11:28:20.981Z,103007.41
2022-12-18T11:30:47.730Z,103002.97
2022-12-18T11:33:20.549Z,103010.16
2022-12-18T11:35:58.819Z,103002.28
2022-12-18T11:38:26.588Z,102991.06
2022-12-18T11:41:22.736Z,102989.91
2022-12-18T11:43:53.974Z,102998.56
2022-12-18T11:46:57.164Z,102983.44
2022-12-18T11:49:35.781Z,102987.94
2022-12-18T11:52:21.289Z,102982.34
2022-12-18T11:54:48.230Z,102978.84
2022-12-18T11:57:29.945Z,102978.16
2022-12-18T12:00:13.089Z,102980.22
2022-12-18T12:03:08.172Z,102975.00
2022-12-18T12:05:56.980Z,102980.50
2022-12-18T12:08:42.117Z,102984.44
2022-12-18T12:11:19.526Z,102967.63
2022-12-18T12:14:14.742Z,102973.28
2022-12-18T12:17:00.088Z,102986.78
2022-12-18T12:19:53.719Z,102985.81
2022-12-18T12:22:39.673Z,102981.09
2022-12-18T12:25:37.483Z,102986.44
2022-12-18T12:28:17.047Z,102980.22
2022-12-18T12:30:45.296Z,102980.38
2022-12-18T12:33:20.794Z,102981.44
2022-12-18T12:36:16.611Z,102974.56
2022-12-18T12:38:52.415Z,102971.63
2022-12-18T12:41:52.326Z,102973.75
2022-12-18T12:44:34.083Z,102965.53
2022-12-18T12:47:14.454Z,102971.13
2022-12-18T12:49:48.785Z,102968.78
2022-12-18T12:52:42.883Z,102977.25
2022-12-18T12:55:18.359Z,102966.97
2022-12-18T12:58:01.227Z,102959.59
2022-12-18T13:00:37.817Z,102960.31
2022-12-18T13:03:34.991Z,102966.97
2022-12-18T13:06:10.544Z,102962.03
2022-12-18T13:08:56.486Z,102966.28
2022-12-18T13:12:11.442Z,102959.25
2022-12-18T13:14:41.481Z,102955.19
2022-12-18T13:17:20.949Z,102959.00
2022-12-18T13:20:04.899Z,102951.44
2022-12-18T13:22:37.506Z,102950.44
2022-12-18T13:25:35.926Z,102952.75
2022-12-18T13:28:13.828Z,102958.00
2022-12-18T13:30:54.102Z,102966.44
2022-12-18T13:33:27.892Z,102959.53
2022-12-18T13:36:24.058Z,102963.66
2022-12-18T13:39:30.229Z,102958.72
2022-12-18T13:42:07.208Z,102961.44
2022-12-18T13:44:39.979Z,102957.63
2022-12-18T13:47:31.746Z,102953.44
2022-12-18T13:49:59.320Z,102950.19
2022-12-18T13:52:34.649Z,102955.44
2022-12-18T13:55:06.319Z,102950.56
2022-12-18T13:57:36.202Z,102955.19
2022-12-18T14:00:29.821Z,102955.75
2022-12-18T14:02:58.174Z,102956.72
2022-12-18T14:05:32.166Z,102957.44
2022-12-18T14:08:17.707Z,102965.25
2022-12-18T14:10:48.386Z,102970.16
2022-12-18T14:13:30.338Z,102965.56
2022-12-18T14:16:03.852Z,102971.31
2022-12-18T14:18:44.952Z,102965.22
2022-12-18T14:21:22.266Z,102964.50
2022-12-18T14:23:49.206Z,102965.28
2022-12-18T14:26:23.555Z,102966.34
2022-12-18T14:28:51.933Z,102958.59
2022-12-18T14:31:20.863Z,102970.75
2022-12-18T14:33:47.983Z,102969.34
2022-12-18T14:36:23.437Z,102960.94
2022-12-18T14:38:55.737Z,102968.94
2022-12-18T14:41:23.551Z,102959.78
2022-12-18T14:43:55.124Z,102968.81
2022-12-18T14:46:31.116Z,102963.19
2022-12-18T14:48:58.623Z,102956.63
2022-12-18T14:51:30.851Z,102970.53
2022-12-18T14:54:22.253Z,102981.13
2022-12-18T14:57:02.520Z,102978.19
2022-12-18T14:59:31.293Z,102973.22
2022-12-18T15:02:11.857Z,102977.47
2022-12-18T15:04:43.647Z,102983.97
2022-12-18T15:07:21.123Z,102985.22
2022-12-18T15:10:12.572Z,102989.28
2022-12-18T15:12:51.708Z,102995.13
2022-12-18T15:15:45.837Z,103001.66
2022-12-18T15:18:18.640Z,103004.84
2022-12-18T15:20:54.566Z,103002.72
2022-12-18T15:23:24.591Z,103010.16
2022-12-18T15:26:00.888Z,103006.59
2022-12-18T15:28:40.423Z,103004.47
2022-12-18T15:31:10.888Z,103020.09
2022-12-18T15:33:48.067Z,103031.94
2022-12-18T15:36:19.317Z,103027.84
2022-12-18T15:38:57.310Z,103024.91
2022-12-18T15:41:36.505Z,103027.00
2022-12-18T15:44:18.257Z,103034.59
2022-12-18T15:46:45.411Z,103049.59
2022-12-18T15:49:12.361Z,103042.31
2022-12-18T15:51:40.942Z,103045.81
2022-12-18T15:54:15.152Z,103040.16
2022-12-18T15:57:00.727Z,103044.66
2022-12-18T15:59:27.848Z,103045.56
2022-12-18T16:01:54.808Z,103042.09
2022-12-18T16:04:23.701Z,103044.88
2022-12-18T16:07:13.799Z,103035.00
2022-12-18T16:09:38.438Z,103051.00
2022-12-18T16:12:07.339Z,103051.00
2022-12-18T16:14:34.147Z,103049.75
2022-12-18T16:17:03.751Z,103054.31
2022-12-18T16:19:31.139Z,103051.66
2022-12-18T16:21:59.451Z,103063.44
2022-12-18T16:24:29.104Z,103060.78
2022-12-18T16:27:00.288Z,103065.19
2022-12-18T16:29:29.317Z,103055.97
2022-12-18T16:31:59.909Z,103072.38
2022-12-18T16:34:36.284Z,103073.06
2022-12-18T16:37:06.665Z,103071.69
2022-12-18T16:39:37.499Z,103072.59
2022-12-18T16:42:17.526Z,103076.63
2022-12-18T16:44:45.767Z,103077.28
2022-12-18T16:47:14.363Z,103071.38
2022-12-18T16:49:42.964Z,103068.75
2022-12-18T16:52:09.751Z,103069.31
2022-12-18T16:54:39.625Z,103063.31
2022-12-18T16:57:06.511Z,103062.31
2022-12-18T16:59:33.295Z,103085.19
2022-12-18T17:02:00.929Z,103073.28
2022-12-18T17:04:27.860Z,103078.97
2022-12-18T17:06:54.584Z,103072.81
2022-12-18T17:09:25.190Z,103074.84
2022-12-18T17:11:53.723Z,103077.00
2022-12-18T17:14:23.949Z,103091.03
2022-12-18T17:17:19.630Z,103083.59
2022-12-18T17:19:42.142Z,103075.28
2022-12-18T17:22:11.481Z,103082.81
2022-12-18T17:24:38.461Z,103089.97
2022-12-18T17:27:09.038Z,103090.97
2022-12-18T17:29:36.337Z,103090.25
2022-12-18T17:32:04.630Z,103096.66
2022-12-18T17:34:31.543Z,103095.94
2022-12-18T17:36:58.427Z,103097.09
2022-12-18T17:39:25.885Z,103100.66
2022-12-18T17:41:52.873Z,103096.69
2022-12-18T17:44:20.251Z,103109.00
2022-12-18T17:46:50.426Z,103109.22
2022-12-18T17:49:17.329Z,103110.22
2022-12-18T17:51:44.167Z,103112.09
2022-12-18T17:54:11.263Z,103119.41
2022-12-18T17:56:39.261Z,103117.56
2022-12-18T17:59:07.239Z,103117.78
2022-12-18T18:01:36.427Z,103122.56
2022-12-18T18:04:05.636Z,103126.88
2022-12-18T18:06:32.416Z,103128.31
2022-12-18T18:09:01.786Z,103131.44
2022-12-18T18:11:47.186Z,103141.84
2022-12-18T18:14:17.196Z,103140.63
2022-12-18T18:16:46.407Z,103132.88
2022-12-18T18:19:20.044Z,103139.75
2022-12-18T18:21:48.867Z,103132.75
2022-12-18T18:24:19.387Z,103140.97
2022-12-18T18:26:47.142Z,103144.31
2022-12-18T18:29:17.162Z,103144.31
2022-12-18T18:31:44.323Z,103143.41
2022-12-18T18:34:32.274Z,103141.63
2022-12-18T18:37:01.597Z,103151.47
2022-12-18T18:39:29.129Z,103147.38
2022-12-18T18:41:56.119Z,103156.56
2022-12-18T18:44:24.747Z,103152.56
2022-12-18T18:46:57.705Z,103151.38
2022-12-18T18:49:27.891Z,103147.25
2022-12-18T18:51:56.691Z,103146.81
2022-12-18T18:54:24.529Z,103139.59
2022-12-18T18:59:39.565Z,103139.53
2022-12-18T19:02:09.332Z,103154.06
2022-12-18T19:04:42.707Z,103154.25
2022-12-18T19:07:15.024Z,103158.00
2022-12-18T19:09:57.054Z,103152.69
2022-12-18T19:12:42.363Z,103152.94
2022-12-18T19:15:09.729Z,103153.81
2022-12-18T19:17:37.603Z,103157.94
2022-12-18T19:20:05.516Z,103159.38
2022-12-18T19:22:32.585Z,103167.69
2022-12-18T19:24:59.567Z,103166.88
2022-12-18T19:27:26.310Z,103173.06
2022-12-18T19:29:53.099Z,103174.91
2022-12-18T19:32:19.967Z,103178.00
2022-12-18T19:34:47.132Z,103177.91
2022-12-18T19:37:14.878Z,103178.91
2022-12-18T19:39:41.792Z,103175.81
2022-12-18T19:42:10.720Z,103167.19
2022-12-18T19:44:37.951Z,103170.50
2022-12-18T19:47:05.184Z,103180.25
2022-12-18T19:49:32.860Z,103176.22
2022-12-18T19:52:01.189Z,103162.94
2022-12-18T19:54:28.260Z,103169.94
2022-12-18T19:56:58.340Z,103163.88
2022-12-18T19:59:25.258Z,103171.41
2022-12-18T20:01:54.826Z,103176.16
2022-12-18T20:04:22.041Z,103170.25
2022-12-18T20:06:52.953Z,103177.88
2022-12-18T20:09:20.045Z,103177.94
2022-12-18T20:11:48.109Z,103184.13
2022-12-18T20:14:19.612Z,103186.69
2022-12-18T20:16:50.458Z,103185.34
2022-12-18T20:19:17.814Z,103184.81
2022-12-18T20:21:45.062Z,103188.94
2022-12-18T20:24:12.470Z,103185.22
2022-12-18T20:26:40.701Z,103185.19
2022-12-18T20:29:10.132Z,103190.63
2022-12-18T20:31:39.321Z,103188.41
2022-12-18T20:34:07.179Z,103191.50
2022-12-18T20:36:36.410Z,103200.63
2022-12-18T20:39:06.507Z,103204.28
2022-12-18T20:41:38.029Z,103200.50
2022-12-18T20:44:09.865Z,103209.94
2022-12-18T20:46:56.434Z,103214.06
2022-12-18T20:49:25.409Z,103216.75
2022-12-18T20:51:57.846Z,103219.38
2022-12-18T20:54:26.896Z,103215.31
2022-12-18T20:56:53.916Z,103216.53
2022-12-18T20:59:23.164Z,103215.09
2022-12-18T21:01:52.322Z,103217.44
2022-12-18T21:04:20.682Z,103221.38
2022-12-18T21:06:54.247Z,103223.16
2022-12-18T21:09:37.644Z,103225.03
2022-12-18T21:12:40.659Z,103217.63
2022-12-18T21:15:18.250Z,103223.28
2022-12-18T21:17:46.504Z,103219.28
2022-12-18T21:20:18.249Z,103219.53
2022-12-18T21:22:47.031Z,103220.31
2022-12-18T21:25:14.763Z,103230.97
2022-12-18T21:27:41.914Z,103231.28
2022-12-18T21:30:09.801Z,103223.97
2022-12-18T21:32:39.565Z,103219.63
2022-12-18T21:35:06.896Z,103222.84
2022-12-18T21:37:34.094Z,103228.50
2022-12-18T21:40:01.465Z,103222.34
2022-12-18T21:42:47.303Z,103223.09
2022-12-18T21:45:14.335Z,103218.66
2022-12-18T21:47:41.434Z,103214.66
2022-12-18T21:50:08.770Z,103219.97
2022-12-18T21:52:35.786Z,103224.66
2022-12-18T21:55:09.113Z,103218.78
2022-12-18T21:57:38.553Z,103220.09
2022-12-18T22:00:07.622Z,103212.81
2022-12-18T22:02:41.061Z,103221.66
2022-12-18T22:05:08.609Z,103213.34
2022-12-18T22:07:35.845Z,103216.44
2022-12-18T22:10:02.722Z,103211.25
2022-12-18T22:12:43.402Z,103212.59
2022-12-18T22:15:13.184Z,103212.16
2022-12-18T22:17:50.304Z,103225.13
2022-12-18T22:20:18.369Z,103228.84
2022-12-18T22:22:48.302Z,103219.88
2022-12-18T22:25:15.153Z,103224.41
2022-12-18T22:27:42.638Z,103230.00
2022-12-18T22:30:16.802Z,103226.66
2022-12-18T22:32:46.696Z,103222.44
2022-12-18T22:35:15.970Z,103238.78
2022-12-18T22:37:43.087Z,103237.53
2022-12-18T22:40:23.898Z,103235.53
2022-12-18T22:42:52.872Z,103247.38
2022-12-18T22:45:20.415Z,103257.13
2022-12-18T22:47:47.318Z,103249.94
2022-12-18T22:50:14.904Z,103259.25
2022-12-18T22:52:42.479Z,103245.38
2022-12-18T22:55:09.715Z,103242.97
2022-12-18T22:57:41.179Z,103238.00
2022-12-18T23:00:32.286Z,103240.84
2022-12-18T23:03:02.291Z,103244.50
2022-12-18T23:05:30.975Z,103246.75
2022-12-18T23:07:58.637Z,103242.22
2022-12-18T23:10:26.108Z,103238.22
2022-12-18T23:12:56.277Z,103241.19
2022-12-18T23:15:27.664Z,103233.97
2022-12-18T23:17:55.286Z,103230.34
2022-12-18T23:20:22.113Z,103231.56
2022-12-18T23:22:48.985Z,103221.78
2022-12-18T23:25:15.964Z,103223.00
2022-12-18T23:27:46.452Z,103224.31
2022-12-18T23:30:16.587Z,103220.78
2022-12-18T23:32:43.452Z,103216.69
2022-12-18T23:35:10.255Z,103216.56
2022-12-18T23:37:58.537Z,103212.69
2022-12-18T23:40:26.747Z,103216.72
2022-12-18T23:42:56.784Z,103204.56
2022-12-18T23:45:29.062Z,103202.94
2022-12-18T23:47:58.384Z,103211.56
2022-12-18T23:50:29.651Z,103215.56
2022-12-18T23:52:57.268Z,103207.25
2022-12-18T23:55:30.559Z,103211.38
2022-12-18T23:57:57.459Z,103212.69
